createdAt,value
2022-10-04T00:01:13.156Z,20.70
2022-10-04T00:03:42.411Z,20.70
2022-10-04T00:06:14.348Z,20.60
2022-10-04T00:08:40.833Z,20.70
2022-10-04T00:11:13.013Z,20.70
2022-10-04T00:13:40.257Z,20.60
2022-10-04T00:16:07.400Z,20.70
2022-10-04T00:18:41.075Z,20.70
2022-10-04T00:21:08.881Z,20.70
2022-10-04T00:23:38.297Z,20.60
2022-10-04T00:26:06.715Z,20.60
2022-10-04T00:28:36.351Z,20.60
2022-10-04T00:31:07.196Z,20.60
2022-10-04T00:33:54.071Z,20.60
2022-10-04T00:36:23.803Z,20.60
2022-10-04T00:39:03.559Z,20.70
2022-10-04T00:41:48.965Z,20.60
2022-10-04T00:44:18.996Z,20.70
2022-10-04T00:46:47.311Z,20.60
2022-10-04T00:49:16.692Z,20.60
2022-10-04T00:51:45.947Z,20.60
2022-10-04T00:54:14.741Z,20.60
2022-10-04T00:56:44.994Z,20.60
2022-10-04T00:59:15.691Z,20.60
2022-10-04T01:01:44.690Z,20.60
2022-10-04T01:04:31.703Z,20.60
2022-10-04T01:06:59.892Z,20.60
2022-10-04T01:09:27.026Z,20.60
2022-10-04T01:12:05.554Z,20.60
2022-10-04T01:14:42.448Z,20.60
2022-10-04T01:17:09.691Z,20.60
2022-10-04T01:19:36.394Z,20.60
2022-10-04T01:22:11.332Z,20.60
2022-10-04T01:24:38.716Z,20.60
2022-10-04T01:27:25.165Z,20.60
2022-10-04T01:29:51.875Z,20.60
2022-10-04T01:32:18.458Z,20.60
2022-10-04T01:34:45.008Z,20.60
2022-10-04T01:37:11.501Z,20.60
2022-10-04T01:39:38.046Z,20.60
2022-10-04T01:42:07.463Z,20.60
2022-10-04T01:44:39.607Z,20.60
2022-10-04T01:47:13.387Z,20.60
2022-10-04T01:49:41.959Z,20.50
2022-10-04T01:52:10.340Z,20.60
2022-10-04T01:54:43.339Z,20.60
2022-10-04T01:57:16.667Z,20.50
2022-10-04T02:00:04.185Z,20.50
2022-10-04T02:02:34.303Z,20.60
2022-10-04T02:05:01.862Z,20.60
2022-10-04T02:07:29.861Z,20.60
2022-10-04T02:09:59.404Z,20.50
2022-10-04T02:12:27.299Z,20.60
2022-10-04T02:14:55.680Z,20.60
2022-10-04T02:17:24.164Z,20.50
2022-10-04T02:19:50.831Z,20.50
2022-10-04T02:22:17.854Z,20.60
2022-10-04T02:24:46.595Z,20.50
2022-10-04T02:27:13.876Z,20.50
2022-10-04T02:29:40.459Z,20.50
2022-10-04T02:32:26.660Z,20.50
2022-10-04T02:34:54.883Z,20.50
2022-10-04T02:37:26.637Z,20.50
2022-10-04T02:39:58.532Z,20.50
2022-10-04T02:42:25.435Z,20.50
2022-10-04T02:44:57.763Z,20.50
2022-10-04T02:47:26.211Z,20.50
2022-10-04T02:49:58.406Z,20.50
2022-10-04T02:52:27.755Z,20.50
2022-10-04T02:55:03.567Z,20.50
2022-10-04T03:00:59.594Z,20.50
2022-10-04T03:03:28.025Z,20.50
2022-10-04T03:06:12.884Z,20.50
2022-10-04T03:08:57.985Z,20.50
2022-10-04T03:11:27.236Z,20.50
2022-10-04T03:13:55.261Z,20.50
2022-10-04T03:16:22.094Z,20.50
2022-10-04T03:18:50.256Z,20.50
2022-10-04T03:21:17.873Z,20.50
2022-10-04T03:23:46.036Z,20.50
2022-10-04T03:26:29.885Z,20.50
2022-10-04T03:28:57.193Z,20.50
2022-10-04T03:31:26.721Z,20.50
2022-10-04T03:33:57.468Z,20.50
2022-10-04T03:36:24.935Z,20.50
2022-10-04T03:38:52.887Z,20.50
2022-10-04T03:41:19.616Z,20.50
2022-10-04T03:43:47.336Z,20.50
2022-10-04T03:46:14.414Z,20.50
2022-10-04T03:48:42.716Z,20.50
2022-10-04T03:51:13.295Z,20.50
2022-10-04T03:53:43.257Z,20.50
2022-10-04T03:56:17.734Z,20.50
2022-10-04T03:58:45.553Z,20.50
2022-10-04T04:01:18.113Z,20.50
2022-10-04T04:03:50.665Z,20.50
2022-10-04T04:06:18.855Z,20.50
2022-10-04T04:08:47.020Z,20.50
2022-10-04T04:11:40.286Z,20.50
2022-10-04T04:14:11.761Z,20.50
2022-10-04T04:16:38.565Z,20.50
2022-10-04T04:19:11.277Z,20.50
2022-10-04T04:21:37.925Z,20.50
2022-10-04T04:24:08.080Z,20.50
2022-10-04T04:26:36.747Z,20.50
2022-10-04T04:29:17.399Z,20.50
2022-10-04T04:31:46.896Z,20.50
2022-10-04T04:34:18.597Z,20.40
2022-10-04T04:36:45.172Z,20.20
2022-10-04T04:39:37.332Z,18.00
2022-10-04T04:42:10.313Z,16.80
2022-10-04T04:44:48.657Z,16.10
2022-10-04T04:47:21.979Z,15.70
2022-10-04T04:49:49.864Z,15.40
2022-10-04T04:52:17.856Z,15.10
2022-10-04T04:54:46.976Z,14.90
2022-10-04T04:57:17.286Z,14.70
2022-10-04T04:59:48.979Z,14.60
2022-10-04T05:02:32.251Z,14.50
2022-10-04T05:05:18.425Z,14.30
2022-10-04T05:07:45.071Z,14.20
2022-10-04T05:10:21.824Z,14.30
2022-10-04T05:12:49.084Z,15.40
2022-10-04T05:15:15.626Z,16.30
2022-10-04T05:17:42.145Z,16.90
2022-10-04T05:20:11.534Z,17.40
2022-10-04T05:22:39.355Z,17.70
2022-10-04T05:25:09.160Z,18.00
2022-10-04T05:27:37.719Z,18.20
2022-10-04T05:30:06.380Z,18.40
2022-10-04T05:32:38.721Z,18.50
2022-10-04T05:35:14.744Z,18.60
2022-10-04T05:37:57.780Z,18.70
2022-10-04T05:40:43.097Z,18.80
2022-10-04T05:43:30.017Z,18.80
2022-10-04T05:46:22.970Z,18.90
2022-10-04T05:48:53.972Z,18.90
2022-10-04T05:51:30.748Z,19.00
2022-10-04T05:53:59.567Z,19.00
2022-10-04T05:56:52.288Z,19.00
2022-10-04T05:59:35.022Z,19.10
2022-10-04T06:02:20.075Z,19.10
2022-10-04T06:05:02.244Z,19.10
2022-10-04T06:07:30.389Z,19.10
2022-10-04T06:10:19.932Z,19.20
2022-10-04T06:12:59.810Z,19.20
2022-10-04T06:15:45.217Z,19.20
2022-10-04T06:18:27.092Z,19.20
2022-10-04T06:20:54.794Z,19.30
2022-10-04T06:23:22.634Z,19.30
2022-10-04T06:26:12.549Z,19.30
2022-10-04T06:28:44.940Z,19.30
2022-10-04T06:31:14.167Z,19.30
2022-10-04T06:33:47.017Z,19.30
2022-10-04T06:36:29.158Z,19.40
2022-10-04T06:38:55.856Z,19.40
2022-10-04T06:41:30.362Z,19.40
2022-10-04T06:44:08.838Z,19.40
2022-10-04T06:46:51.411Z,19.40
2022-10-04T06:49:26.797Z,19.40
2022-10-04T06:51:53.254Z,19.40
2022-10-04T06:54:42.723Z,19.40
2022-10-04T06:57:18.881Z,19.40
2022-10-04T06:59:57.466Z,19.40
2022-10-04T07:02:34.321Z,19.50
2022-10-04T07:05:30.167Z,19.50
2022-10-04T07:08:09.389Z,19.50
2022-10-04T07:10:38.825Z,19.50
2022-10-04T07:13:10.524Z,19.50
2022-10-04T07:15:54.185Z,19.50
2022-10-04T07:18:23.784Z,19.60
2022-10-04T07:20:58.086Z,19.60
2022-10-04T07:23:28.783Z,19.60
2022-10-04T07:25:58.669Z,19.60
2022-10-04T07:28:49.130Z,19.60
2022-10-04T07:31:23.431Z,19.60
2022-10-04T07:33:51.830Z,19.60
2022-10-04T07:36:22.016Z,19.60
2022-10-04T07:38:51.301Z,19.60
2022-10-04T07:41:29.616Z,19.70
2022-10-04T07:44:01.329Z,19.70
2022-10-04T07:46:38.536Z,19.70
2022-10-04T07:49:10.979Z,19.70
2022-10-04T07:51:44.817Z,19.70
2022-10-04T07:54:19.224Z,19.70
2022-10-04T07:56:51.160Z,19.70
2022-10-04T07:59:31.940Z,19.70
2022-10-04T08:02:13.797Z,19.70
2022-10-04T08:04:43.148Z,19.70
2022-10-04T08:07:15.842Z,19.70
2022-10-04T08:10:03.755Z,19.70
2022-10-04T08:12:51.821Z,19.70
2022-10-04T08:15:37.809Z,19.70
2022-10-04T08:18:21.911Z,19.70
2022-10-04T08:20:54.433Z,19.70
2022-10-04T08:23:33.042Z,19.70
2022-10-04T08:26:18.338Z,19.80
2022-10-04T08:29:08.693Z,19.80
2022-10-04T08:31:51.312Z,19.70
2022-10-04T08:34:23.896Z,19.80
2022-10-04T08:37:03.113Z,19.80
2022-10-04T08:39:48.222Z,19.80
2022-10-04T08:42:33.501Z,19.80
2022-10-04T08:45:02.026Z,19.80
2022-10-04T08:47:49.605Z,19.80
2022-10-04T08:50:34.887Z,19.80
2022-10-04T08:53:21.824Z,19.80
2022-10-04T08:56:07.301Z,19.80
2022-10-04T08:58:33.805Z,19.80
2022-10-04T09:01:19.077Z,19.80
2022-10-04T09:04:01.609Z,19.90
2022-10-04T09:06:36.261Z,19.90
2022-10-04T09:09:08.559Z,19.80
2022-10-04T09:11:53.781Z,19.80
2022-10-04T09:14:35.732Z,19.90
2022-10-04T09:17:02.468Z,19.90
2022-10-04T09:19:28.924Z,19.90
2022-10-04T09:21:55.432Z,19.90
2022-10-04T09:24:40.351Z,19.90
2022-10-04T09:27:54.061Z,19.90
2022-10-04T09:30:22.336Z,19.90
2022-10-04T09:33:10.754Z,19.90
2022-10-04T09:35:50.187Z,19.90
2022-10-04T09:38:22.941Z,19.90
2022-10-04T09:40:52.465Z,19.90
2022-10-04T09:43:33.260Z,19.90
2022-10-04T09:46:16.366Z,19.90
2022-10-04T09:49:05.967Z,19.90
2022-10-04T09:51:43.596Z,19.90
2022-10-04T09:54:28.955Z,19.90
2022-10-04T09:57:01.225Z,19.90
2022-10-04T09:59:32.264Z,19.90
2022-10-04T10:02:17.766Z,20.00
2022-10-04T10:04:52.192Z,19.90
2022-10-04T10:07:18.628Z,20.00
2022-10-04T10:10:03.639Z,20.00
2022-10-04T10:12:54.649Z,20.00
2022-10-04T10:15:42.052Z,20.00
2022-10-04T10:18:27.780Z,19.90
2022-10-04T10:21:06.676Z,20.00
2022-10-04T10:23:48.402Z,20.00
2022-10-04T10:26:30.157Z,20.00
2022-10-04T10:29:07.082Z,20.00
2022-10-04T10:31:33.595Z,20.00
2022-10-04T10:34:14.967Z,20.00
2022-10-04T10:37:00.331Z,20.00
2022-10-04T10:39:41.887Z,20.00
2022-10-04T10:42:27.203Z,20.00
2022-10-04T10:45:09.354Z,20.00
2022-10-04T10:47:52.424Z,20.00
2022-10-04T10:50:27.173Z,20.00
2022-10-04T10:52:55.432Z,20.00
2022-10-04T10:55:41.076Z,20.00
2022-10-04T10:58:15.496Z,20.00
2022-10-04T11:00:50.297Z,20.00
2022-10-04T11:03:21.864Z,20.00
2022-10-04T11:06:12.001Z,20.10
2022-10-04T11:09:04.853Z,20.10
2022-10-04T11:11:44.070Z,20.10
2022-10-04T11:14:18.132Z,20.10
2022-10-04T11:17:07.684Z,20.10
2022-10-04T11:19:52.722Z,20.00
2022-10-04T11:22:19.614Z,20.10
2022-10-04T11:24:46.099Z,20.10
2022-10-04T11:27:24.991Z,20.10
2022-10-04T11:30:03.883Z,20.10
2022-10-04T11:32:49.745Z,20.10
2022-10-04T11:35:22.382Z,20.10
2022-10-04T11:38:04.811Z,20.00
2022-10-04T11:40:31.748Z,20.10
2022-10-04T11:43:35.951Z,20.10
2022-10-04T11:46:10.942Z,20.10
2022-10-04T11:48:37.735Z,20.10
2022-10-04T11:51:18.293Z,20.10
2022-10-04T11:54:03.458Z,20.10
2022-10-04T11:56:36.165Z,20.10
2022-10-04T11:59:02.600Z,20.10
2022-10-04T12:01:48.182Z,20.10
2022-10-04T12:04:33.492Z,20.10
2022-10-04T12:07:22.563Z,20.10
2022-10-04T12:10:01.081Z,20.10
2022-10-04T12:12:48.296Z,20.10
2022-10-04T12:15:27.944Z,20.10
2022-10-04T12:18:26.538Z,20.10
2022-10-04T12:21:12.473Z,20.10
2022-10-04T12:23:38.960Z,20.10
2022-10-04T12:26:32.205Z,20.10
2022-10-04T12:29:04.425Z,20.10
2022-10-04T12:31:30.931Z,20.10
2022-10-04T12:33:57.459Z,20.20
2022-10-04T12:36:24.556Z,20.10
2022-10-04T12:39:08.016Z,20.20
2022-10-04T12:41:34.507Z,20.20
2022-10-04T12:44:22.480Z,20.20
2022-10-04T12:46:49.524Z,20.20
2022-10-04T12:49:25.769Z,20.10
2022-10-04T12:52:10.829Z,20.20
2022-10-04T12:54:56.482Z,20.10
2022-10-04T12:57:32.179Z,20.20
2022-10-04T12:59:59.765Z,20.20
2022-10-04T13:02:40.741Z,20.20
2022-10-04T13:05:14.464Z,20.20
2022-10-04T13:07:53.088Z,20.20
2022-10-04T13:10:26.065Z,20.20
2022-10-04T13:13:04.411Z,20.20
2022-10-04T13:18:39.680Z,20.20
2022-10-04T13:21:08.060Z,20.20
2022-10-04T13:23:53.089Z,20.20
2022-10-04T13:26:31.878Z,20.20
2022-10-04T13:29:06.740Z,20.20
2022-10-04T13:31:49.055Z,20.20
2022-10-04T13:34:16.550Z,20.20
2022-10-04T13:37:01.436Z,20.30
2022-10-04T13:39:30.935Z,20.20
2022-10-04T13:42:00.399Z,20.20
2022-10-04T13:44:26.825Z,20.20
2022-10-04T13:47:11.657Z,20.20
2022-10-04T13:49:47.332Z,20.30
2022-10-04T13:52:35.690Z,20.30
2022-10-04T13:55:23.866Z,20.30
2022-10-04T13:57:55.273Z,20.30
2022-10-04T14:00:48.728Z,20.30
2022-10-04T14:03:18.268Z,20.30
2022-10-04T14:05:57.047Z,20.30
2022-10-04T14:08:23.507Z,20.30
2022-10-04T14:11:08.851Z,20.30
2022-10-04T14:13:55.482Z,20.30
2022-10-04T14:16:24.795Z,20.30
2022-10-04T14:19:21.101Z,20.30
2022-10-04T14:21:48.123Z,20.30
2022-10-04T14:24:18.402Z,20.30
2022-10-04T14:27:10.961Z,20.30
2022-10-04T14:29:56.325Z,20.30
2022-10-04T14:32:28.956Z,20.30
2022-10-04T14:35:01.619Z,20.30
2022-10-04T14:37:51.477Z,20.30
2022-10-04T14:40:36.235Z,20.30
2022-10-04T14:43:21.549Z,20.40
2022-10-04T14:45:48.699Z,20.40
2022-10-04T14:48:25.971Z,20.40
2022-10-04T14:50:53.034Z,20.40
2022-10-04T14:53:28.739Z,20.40
2022-10-04T14:56:06.284Z,20.50
2022-10-04T14:58:35.580Z,20.50
2022-10-04T15:01:02.227Z,20.50
2022-10-04T15:03:49.163Z,20.50
2022-10-04T15:06:23.202Z,20.40
2022-10-04T15:09:01.408Z,20.40
2022-10-04T15:11:40.516Z,20.40
2022-10-04T15:14:25.528Z,20.40
2022-10-04T15:16:55.431Z,20.40
2022-10-04T15:19:21.920Z,20.40
2022-10-04T15:21:51.843Z,20.40
2022-10-04T15:24:18.344Z,20.40
2022-10-04T15:26:49.854Z,20.40
2022-10-04T15:29:27.659Z,20.40
2022-10-04T15:32:06.372Z,20.40
2022-10-04T15:34:55.047Z,20.40
2022-10-04T15:37:36.619Z,20.40
2022-10-04T15:40:06.179Z,20.40
2022-10-04T15:42:33.696Z,20.40
2022-10-04T15:45:18.521Z,20.30
2022-10-04T15:48:03.774Z,20.50
2022-10-04T15:50:42.511Z,20.40
2022-10-04T15:53:14.979Z,20.30
2022-10-04T15:55:50.603Z,20.20
2022-10-04T15:58:17.064Z,20.30
2022-10-04T16:00:48.179Z,20.40
2022-10-04T16:03:33.977Z,20.40
2022-10-04T16:06:20.767Z,20.50
2022-10-04T16:08:52.719Z,20.50
2022-10-04T16:11:29.101Z,20.60
2022-10-04T16:13:56.700Z,20.60
2022-10-04T16:16:26.129Z,20.60
2022-10-04T16:18:52.692Z,20.60
2022-10-04T16:21:30.561Z,20.60
2022-10-04T16:24:15.712Z,20.60
2022-10-04T16:26:43.436Z,20.60
2022-10-04T16:29:16.411Z,20.60
2022-10-04T16:32:11.035Z,20.60
2022-10-04T16:34:45.210Z,20.70
2022-10-04T16:37:35.108Z,20.70
2022-10-04T16:40:37.350Z,20.70
2022-10-04T16:43:13.711Z,20.70
2022-10-04T16:45:49.140Z,20.70
2022-10-04T16:48:30.853Z,20.70
2022-10-04T16:51:03.371Z,20.70
2022-10-04T16:53:48.409Z,20.80
2022-10-04T16:56:16.511Z,20.80
2022-10-04T16:58:43.173Z,20.70
2022-10-04T17:01:22.098Z,20.70
2022-10-04T17:03:56.138Z,20.70
2022-10-04T17:06:35.847Z,20.70
2022-10-04T17:09:02.307Z,20.70
2022-10-04T17:11:35.452Z,20.70
2022-10-04T17:14:05.030Z,20.70
2022-10-04T17:16:34.527Z,20.70
2022-10-04T17:19:20.539Z,20.70
2022-10-04T17:21:50.268Z,20.70
2022-10-04T17:24:17.219Z,20.70
2022-10-04T17:26:55.697Z,20.70
2022-10-04T17:29:28.594Z,20.70
2022-10-04T17:31:57.511Z,19.90
2022-10-04T17:34:42.914Z,19.30
2022-10-04T17:37:12.516Z,19.60
2022-10-04T17:39:47.106Z,20.00
2022-10-04T17:42:23.225Z,20.20
2022-10-04T17:44:57.709Z,20.40
2022-10-04T17:47:57.926Z,20.50
2022-10-04T17:50:48.244Z,20.50
2022-10-04T17:53:38.029Z,20.50
2022-10-04T17:56:06.577Z,20.60
2022-10-04T17:58:47.800Z,20.70
2022-10-04T18:01:24.626Z,20.70
2022-10-04T18:03:54.657Z,20.70
2022-10-04T18:06:42.688Z,20.70
2022-10-04T18:09:20.416Z,20.70
2022-10-04T18:11:47.204Z,20.70
2022-10-04T18:14:22.659Z,20.70
2022-10-04T18:16:51.846Z,20.80
2022-10-04T18:19:30.649Z,20.70
2022-10-04T18:22:02.335Z,20.80
2022-10-04T18:24:30.280Z,21.00
2022-10-04T18:27:04.853Z,21.00
2022-10-04T18:29:44.743Z,21.10
2022-10-04T18:32:31.251Z,21.10
2022-10-04T18:35:01.590Z,21.10
2022-10-04T18:37:31.728Z,21.10
2022-10-04T18:40:06.111Z,21.20
2022-10-04T18:42:36.906Z,21.20
2022-10-04T18:45:20.365Z,21.20
2022-10-04T18:47:47.257Z,21.20
2022-10-04T18:50:15.387Z,21.20
2022-10-04T18:52:53.826Z,21.20
2022-10-04T18:55:33.270Z,21.30
2022-10-04T18:58:30.506Z,21.30
2022-10-04T19:01:21.343Z,21.30
2022-10-04T19:03:59.582Z,21.30
2022-10-04T19:06:28.524Z,21.30
2022-10-04T19:08:58.610Z,21.30
2022-10-04T19:11:45.522Z,21.40
2022-10-04T19:14:17.816Z,21.30
2022-10-04T19:16:59.487Z,21.30
2022-10-04T19:19:35.333Z,21.40
2022-10-04T19:22:20.095Z,21.40
2022-10-04T19:24:56.227Z,21.40
2022-10-04T19:27:50.344Z,21.30
2022-10-04T19:30:16.980Z,21.10
2022-10-04T19:33:07.038Z,21.10
2022-10-04T19:35:42.776Z,21.10
2022-10-04T19:38:29.406Z,21.00
2022-10-04T19:41:07.959Z,21.00
2022-10-04T19:43:46.660Z,21.00
2022-10-04T19:46:26.192Z,21.00
2022-10-04T19:48:53.084Z,21.00
2022-10-04T19:51:27.235Z,21.10
2022-10-04T19:53:59.279Z,21.00
2022-10-04T19:56:29.408Z,21.10
2022-10-04T19:59:22.241Z,21.00
2022-10-04T20:01:51.095Z,21.00
2022-10-04T20:04:36.077Z,21.00
2022-10-04T20:07:04.251Z,21.10
2022-10-04T20:09:36.942Z,21.10
2022-10-04T20:12:04.570Z,21.10
2022-10-04T20:14:31.138Z,21.10
2022-10-04T20:16:57.877Z,21.10
2022-10-04T20:22:53.821Z,21.10
2022-10-04T20:29:00.847Z,20.90
2022-10-04T20:31:30.432Z,20.90
2022-10-04T20:37:43.874Z,20.80
2022-10-04T20:40:11.390Z,20.80
2022-10-04T20:42:38.708Z,20.80
2022-10-04T20:45:11.010Z,20.80
2022-10-04T20:47:49.011Z,20.70
2022-10-04T20:50:18.449Z,20.70
2022-10-04T20:52:47.114Z,20.80
2022-10-04T20:55:29.605Z,20.70
2022-10-04T20:57:57.847Z,20.70
2022-10-04T21:00:25.569Z,20.70
2022-10-04T21:03:08.226Z,20.70
2022-10-04T21:05:34.778Z,20.70
2022-10-04T21:08:19.675Z,20.70
2022-10-04T21:11:05.675Z,20.70
2022-10-04T21:13:52.576Z,20.70
2022-10-04T21:16:38.112Z,20.70
2022-10-04T21:19:23.401Z,20.70
2022-10-04T21:21:50.297Z,20.70
2022-10-04T21:24:27.074Z,20.70
2022-10-04T21:26:57.103Z,20.70
2022-10-04T21:29:23.587Z,20.70
2022-10-04T21:31:50.150Z,20.70
2022-10-04T21:34:29.104Z,20.70
2022-10-04T21:37:03.087Z,20.70
2022-10-04T21:39:29.553Z,20.70
2022-10-04T21:41:56.466Z,20.70
2022-10-04T21:44:22.976Z,20.70
2022-10-04T21:46:49.434Z,20.70
2022-10-04T21:49:15.900Z,20.70
2022-10-04T21:51:42.468Z,20.70
2022-10-04T21:54:09.011Z,20.70
2022-10-04T21:56:35.480Z,20.70
2022-10-04T21:59:01.967Z,20.70
2022-10-04T22:01:28.492Z,20.70
2022-10-04T22:03:55.084Z,20.70
2022-10-04T22:06:21.833Z,20.70
2022-10-04T22:08:48.297Z,20.70
2022-10-04T22:11:14.763Z,20.70
2022-10-04T22:13:41.241Z,20.70
2022-10-04T22:16:08.137Z,20.70
2022-10-04T22:18:34.667Z,20.70
2022-10-04T22:21:01.145Z,20.70
2022-10-04T22:23:28.580Z,20.70
2022-10-04T22:25:55.283Z,20.70
2022-10-04T22:28:22.981Z,20.70
2022-10-04T22:30:50.129Z,20.70
2022-10-04T22:33:23.746Z,20.70
2022-10-04T22:35:50.216Z,20.70
2022-10-04T22:38:16.704Z,20.70
2022-10-04T22:40:43.194Z,20.70
2022-10-04T22:43:13.483Z,20.70
2022-10-04T22:45:42.166Z,20.70
2022-10-04T22:48:13.533Z,20.70
2022-10-04T22:50:40.113Z,20.70
2022-10-04T22:53:12.578Z,20.70
2022-10-04T22:55:42.465Z,20.60
2022-10-04T22:58:13.459Z,20.70
2022-10-04T23:00:40.200Z,20.70
2022-10-04T23:03:21.338Z,20.70
2022-10-04T23:05:47.888Z,20.70
2022-10-04T23:08:14.838Z,20.60
2022-10-04T23:10:41.303Z,20.70
2022-10-04T23:13:07.772Z,20.70
2022-10-04T23:15:34.589Z,20.70
2022-10-04T23:18:01.266Z,20.60
2022-10-04T23:20:28.743Z,20.70
2022-10-04T23:22:55.505Z,20.60
2022-10-04T23:25:26.933Z,20.60
2022-10-04T23:27:54.839Z,20.70
2022-10-04T23:30:22.541Z,20.60
2022-10-04T23:32:50.751Z,20.70
2022-10-04T23:35:23.147Z,20.70
2022-10-04T23:37:50.186Z,20.60
2022-10-04T23:40:18.806Z,20.60
2022-10-04T23:42:46.180Z,20.60
2022-10-04T23:45:17.862Z,20.60
2022-10-04T23:47:44.791Z,20.70
2022-10-04T23:50:17.903Z,20.60
2022-10-04T23:52:44.965Z,20.60
2022-10-04T23:55:16.875Z,20.60
2022-10-04T23:57:43.417Z,20.60
